Montrose, South Dakota
Current Conditions -  °F | °C
As of 1:10 AM on Saturday 20 Dec 2014 (Local Time) from KMDS Reporting Station
Haze Haze  
Wind Chill: 16°   Ceiling: 500
Heat Index: 28°   Visibility: 5mi
Dew Point: 28°   Wind: 17mph
Humidity: 100%   Direction: 190°S
Pressure: 30.02"   Gusts: NA
Location:  43.7°N, 97.18°W
Report Text: KMDS 200710Z AUTO 19015KT 5SM BR OVC005 M02/M02 A3002 RMK AO2
Loading
Personal Weather Stations






























Interactive Weather Map New forecast layout! Learn more

10-Day Weather Forecast

Advertisements
Track Severe Weather on mobile